Terminal Aerodrome Forecast
Issued by NWS

Home | Current Version | Previous Version | Text Only | Print | Product List | Glossary On
Versions: 1 2 3 4 5 6 7 8 9 10 11 12 13
000
FTUS44 KTSA 061100
TAFMLC
TAF
KMLC 061135Z 0612/0712 16008G18KT 6SM -SHRA BR OVC040
      TEMPO 0612/0616 3SM -TSRA BKN025CB
     FM061600 16012G20KT P6SM OVC015
     FM062100 18012G20KT P6SM VCTS BKN040CB
     FM070300 15010KT P6SM OVC025 PROB30 0706/0712 6SM -TSRA
      BKN015CB=

USA.gov is the U.S. government's official web portal to all federal, state and local government web resources and services.